Eurogracht — PDZR — position and weather

sailwx.info

Track history (hours):
 
Tides and Currents Weather Stations Pressure Air Temp Water Temp Dewpoint Dewpoint Depression Visibility Wind Speed Wind Dir Waves Ship Positions

Eurogracht

Last reported at 2018-Feb-18 06:41 UTC. Time now 2018-Feb-21 03:42 UTC.
Position N 60°28' E 019°01'.

Length 136 m; beam 19 m; draft 9 m.

Type: Cargo ship. MMSI: 246321000.

Date/timePositionNaut miles runAvg speedWind from/ knotsBaromVisibWave heightAir tempDewpointWater temp
2018-Feb-18 06:41N 60°28' E 019°01'212.2
2018-Feb-18 06:30N 60°26' E 019°01'712.3
2018-Feb-18 05:58N 60°19' E 019°01'612.1
2018-Feb-18 05:29N 60°13' E 019°04'611.9
2018-Feb-18 05:00N 60°09' E 019°11'612.2
2018-Feb-18 04:30N 60°04' E 019°19'612.2
2018-Feb-18 04:00N 59°59' E 019°26'612.0
2018-Feb-18 03:30N 59°55' E 019°34'611.9
2018-Feb-18 03:00N 59°50' E 019°42'711.9
2018-Feb-18 02:25N 59°45' E 019°51'24312.0
2018-Feb-17 06:03N 56°03' E 016°45'112.8
2018-Feb-17 06:00N 56°02' E 016°44'612.7
2018-Feb-17 05:30N 55°59' E 016°34'612.8
2018-Feb-17 05:00N 55°56' E 016°24'612.9
2018-Feb-17 04:30N 55°53' E 016°14'612.9
2018-Feb-17 04:00N 55°50' E 016°04'612.8
2018-Feb-17 03:30N 55°47' E 015°54'612.8
2018-Feb-17 03:00N 55°44' E 015°44'713.0
2018-Feb-17 02:30N 55°41' E 015°33'713.1
2018-Feb-17 02:00N 55°38' E 015°23'713.1
2018-Feb-17 01:30N 55°35' E 015°13'612.9
2018-Feb-17 01:00N 55°32' E 015°03'612.6
2018-Feb-17 00:30N 55°28' E 014°53'612.8
2018-Feb-17 00:00N 55°25' E 014°44'612.3
2018-Feb-16 23:30N 55°21' E 014°35'612.5
2018-Feb-16 23:00N 55°16' E 014°29'612.4
2018-Feb-16 22:30N 55°11' E 014°22'612.5
2018-Feb-16 22:00N 55°06' E 014°16'612.6
2018-Feb-16 21:30N 55°02' E 014°09'812.7
2018-Feb-16 20:55N 54°59' E 013°56'4413.2
2018-Feb-16 17:36N 54°45' E 012°44'2112.8
2018-Feb-16 15:59N 54°32' E 012°17'612.8
2018-Feb-16 15:30N 54°26' E 012°13'611.8
2018-Feb-16 15:00N 54°24' E 012°03'913.1
2018-Feb-16 14:19N 54°24' E 011°48'412.7
2018-Feb-16 14:00N 54°26' E 011°42'713.1
2018-Feb-16 13:30N 54°29' E 011°32'713.1
2018-Feb-16 13:00N 54°32' E 011°22'612.8
2018-Feb-16 12:30N 54°35' E 011°12'612.0
2018-Feb-16 12:00N 54°35' E 011°01'612.5
2018-Feb-16 11:30N 54°35' E 010°51'713.1
2018-Feb-16 11:00N 54°34' E 010°39'612.7
2018-Feb-16 10:30N 54°32' E 010°29'21 3.3
2018-Feb-16 04:11N 54°21' E 009°59'2 6.1
2018-Feb-16 03:50N 54°21' E 009°56'3 6.7
2018-Feb-16 03:26N 54°22' E 009°51'3 5.9
2018-Feb-16 03:00N 54°22' E 009°47'3 6.4
2018-Feb-16 02:30N 54°19' E 009°43'3 5.2
2018-Feb-16 02:00N 54°17' E 009°40'3 6.0
2018-Feb-16 01:30N 54°15' E 009°37'3 5.7
2018-Feb-16 01:00N 54°13' E 009°35'3 6.3
2018-Feb-16 00:30N 54°11' E 009°30'3 6.5
2018-Feb-16 00:00N 54°10' E 009°25'2 4.1
2018-Feb-15 23:30N 54°09' E 009°22'2 3.2
2018-Feb-15 23:00N 54°08' E 009°20'3 6.2
2018-Feb-15 22:30N 54°05' E 009°19'3 6.1
2018-Feb-15 22:00N 54°02' E 009°18'3 6.3
2018-Feb-15 21:31N 53°59' E 009°16'3 6.6
2018-Feb-15 21:00N 53°56' E 009°13'3 6.4
2018-Feb-15 20:30N 53°54' E 009°09'0 0.5
2018-Feb-15 20:00N 53°54' E 009°09'1 2.2
2018-Feb-15 19:30N 53°53' E 009°07'0 0.6
2018-Feb-15 19:01N 53°53' E 009°07'0 0.7
2018-Feb-15 18:30N 53°53' E 009°06'4 7.5
2018-Feb-15 18:01N 53°51' E 009°00'510.4
2018-Feb-15 17:30N 53°50' E 008°52'5 9.2
2018-Feb-15 17:00N 53°52' E 008°44'4 8.8
2018-Feb-15 16:30N 53°55' E 008°40'710.3
2018-Feb-15 15:51N 53°58' E 008°30'14613.2
2018-Feb-15 04:46N 53°14' E 004°35'414.5
2018-Feb-15 04:30N 53°11' E 004°32'714.4
2018-Feb-15 04:00N 53°04' E 004°27'814.7
2018-Feb-15 03:28N 52°58' E 004°20'714.6
2018-Feb-15 03:00N 52°51' E 004°15'1014.1
2018-Feb-15 02:16N 52°43' E 004°04'413.8
2018-Feb-15 02:00N 52°41' E 004°00'714.0
2018-Feb-15 01:29N 52°35' E 003°52'1113.8
2018-Feb-15 00:39N 52°28' E 003°39'5712.5
2018-Feb-14 20:08N 51°46' E 002°36'211.2
2018-Feb-14 19:59N 51°45' E 002°35'611.8
2018-Feb-14 19:30N 51°40' E 002°29'712.1
2018-Feb-14 18:55N 51°34' E 002°22'512.2
2018-Feb-14 18:30N 51°30' E 002°17'712.3
2018-Feb-14 17:59N 51°25' E 002°13'511.4
2018-Feb-14 17:30N 51°20' E 002°08'713.1
2018-Feb-14 17:00N 51°14' E 002°03'713.1
2018-Feb-14 16:30N 51°10' E 001°55'713.2
2018-Feb-14 16:00N 51°07' E 001°46'713.8
2018-Feb-14 15:30N 51°03' E 001°38'714.3
2018-Feb-14 15:00N 50°57' E 001°30'714.3
2018-Feb-14 14:30N 50°51' E 001°24'714.4
2018-Feb-14 14:00N 50°44' E 001°21'4913.0
2018-Feb-14 10:13N 50°22' E 000°12'314.0
2018-Feb-14 10:00N 50°21' E 000°08'714.2
2018-Feb-14 09:29N 50°19' W 000°03'714.6
2018-Feb-14 09:00N 50°17' W 000°14'915.1
2018-Feb-14 08:24N 50°15' W 000°28'1015.3
2018-Feb-14 07:45N 50°12' W 000°43'515.9
2018-Feb-14 07:27N 50°11' W 000°50'715.9
2018-Feb-14 06:59N 50°09' W 001°01'816.0
2018-Feb-14 06:30N 50°07' W 001°12'815.7
2018-Feb-14 06:00N 50°04' W 001°24'815.3
2018-Feb-14 05:30N 50°03' W 001°36'714.7
2018-Feb-14 05:00N 50°01' W 001°47'714.2
2018-Feb-14 04:31N 49°59' W 001°57'713.6
2018-Feb-14 03:58N 49°57' W 002°08'11412.0
2018-Feb-13 18:26N 49°05' W 004°45'612.3
2018-Feb-13 17:56N 49°02' W 004°53'812.1
2018-Feb-13 17:15N 48°58' W 005°04'412.3
2018-Feb-13 16:57N 48°56' W 005°08'612.5
2018-Feb-13 16:29N 48°53' W 005°16'612.7
2018-Feb-13 16:01N 48°50' W 005°24'712.8
2018-Feb-13 15:29N 48°47' W 005°33'511.4
2018-Feb-13 15:01N 48°43' W 005°38'1211.7
2018-Feb-13 13:57N 48°32' W 005°47'57811.4
2018-Feb-11 11:08N 39°21' W 009°50'212.5
2018-Feb-11 11:00N 39°20' W 009°50'612.5
2018-Feb-11 10:30N 39°14' W 009°50'612.4
2018-Feb-11 10:00N 39°07' W 009°51'612.3
2018-Feb-11 09:30N 39°01' W 009°50'612.2
2018-Feb-11 09:00N 38°55' W 009°50'612.5
2018-Feb-11 08:30N 38°49' W 009°51'612.3
2018-Feb-11 08:00N 38°43' W 009°50'612.2
2018-Feb-11 07:30N 38°37' W 009°48'612.1
2018-Feb-11 07:00N 38°31' W 009°46'612.1
2018-Feb-11 06:30N 38°25' W 009°44'611.8
2018-Feb-11 06:00N 38°19' W 009°42'611.2
2018-Feb-11 05:26N 38°13' W 009°41'510.9
2018-Feb-11 05:00N 38°08' W 009°41'611.3
2018-Feb-11 04:30N 38°03' W 009°39'611.2
2018-Feb-11 04:00N 37°58' W 009°37'611.2
2018-Feb-11 03:30N 37°52' W 009°36'611.0
2018-Feb-11 03:00N 37°47' W 009°34'510.7
2018-Feb-11 02:30N 37°41' W 009°33'21410.7
2018-Feb-10 06:31N 35°58' W 005°38'010.7
2018-Feb-10 06:30N 35°58' W 005°38'611.1
2018-Feb-10 06:00N 35°59' W 005°31'610.4
2018-Feb-10 05:28N 36°01' W 005°24'510.4
2018-Feb-10 05:00N 36°02' W 005°19'611.3
2018-Feb-10 04:30N 36°04' W 005°12'  
Track history (hours):
 
Tides and Currents Weather Stations Pressure Air Temp Water Temp Dewpoint Dewpoint Depression Visibility Wind Speed Wind Dir Waves Ship Positions

Eurogracht

Last reported at 2018-Feb-18 06:41 UTC. Time now 2018-Feb-21 03:42 UTC.
Position N 60°28' E 019°01'.

Length 136 m; beam 19 m; draft 9 m.

Type: Cargo ship. MMSI: 246321000.

Date/timePositionNaut miles runAvg speedWind from/ knotsBaromVisibWave heightAir tempDewpointWater temp
2018-Feb-18 06:41N 60°28' E 019°01'212.2
2018-Feb-18 06:30N 60°26' E 019°01'712.3
2018-Feb-18 05:58N 60°19' E 019°01'612.1
2018-Feb-18 05:29N 60°13' E 019°04'611.9
2018-Feb-18 05:00N 60°09' E 019°11'612.2
2018-Feb-18 04:30N 60°04' E 019°19'612.2
2018-Feb-18 04:00N 59°59' E 019°26'612.0
2018-Feb-18 03:30N 59°55' E 019°34'611.9
2018-Feb-18 03:00N 59°50' E 019°42'711.9
2018-Feb-18 02:25N 59°45' E 019°51'24312.0
2018-Feb-17 06:03N 56°03' E 016°45'112.8
2018-Feb-17 06:00N 56°02' E 016°44'612.7
2018-Feb-17 05:30N 55°59' E 016°34'612.8
2018-Feb-17 05:00N 55°56' E 016°24'612.9
2018-Feb-17 04:30N 55°53' E 016°14'612.9
2018-Feb-17 04:00N 55°50' E 016°04'612.8
2018-Feb-17 03:30N 55°47' E 015°54'612.8
2018-Feb-17 03:00N 55°44' E 015°44'713.0
2018-Feb-17 02:30N 55°41' E 015°33'713.1
2018-Feb-17 02:00N 55°38' E 015°23'713.1
2018-Feb-17 01:30N 55°35' E 015°13'612.9
2018-Feb-17 01:00N 55°32' E 015°03'612.6
2018-Feb-17 00:30N 55°28' E 014°53'612.8
2018-Feb-17 00:00N 55°25' E 014°44'612.3
2018-Feb-16 23:30N 55°21' E 014°35'612.5
2018-Feb-16 23:00N 55°16' E 014°29'612.4
2018-Feb-16 22:30N 55°11' E 014°22'612.5
2018-Feb-16 22:00N 55°06' E 014°16'612.6
2018-Feb-16 21:30N 55°02' E 014°09'812.7
2018-Feb-16 20:55N 54°59' E 013°56'4413.2
2018-Feb-16 17:36N 54°45' E 012°44'2112.8
2018-Feb-16 15:59N 54°32' E 012°17'612.8
2018-Feb-16 15:30N 54°26' E 012°13'611.8
2018-Feb-16 15:00N 54°24' E 012°03'913.1
2018-Feb-16 14:19N 54°24' E 011°48'412.7
2018-Feb-16 14:00N 54°26' E 011°42'713.1
2018-Feb-16 13:30N 54°29' E 011°32'713.1
2018-Feb-16 13:00N 54°32' E 011°22'612.8
2018-Feb-16 12:30N 54°35' E 011°12'612.0
2018-Feb-16 12:00N 54°35' E 011°01'612.5
2018-Feb-16 11:30N 54°35' E 010°51'713.1
2018-Feb-16 11:00N 54°34' E 010°39'612.7
2018-Feb-16 10:30N 54°32' E 010°29'21 3.3
2018-Feb-16 04:11N 54°21' E 009°59'2 6.1
2018-Feb-16 03:50N 54°21' E 009°56'3 6.7
2018-Feb-16 03:26N 54°22' E 009°51'3 5.9
2018-Feb-16 03:00N 54°22' E 009°47'3 6.4
2018-Feb-16 02:30N 54°19' E 009°43'3 5.2
2018-Feb-16 02:00N 54°17' E 009°40'3 6.0
2018-Feb-16 01:30N 54°15' E 009°37'3 5.7
2018-Feb-16 01:00N 54°13' E 009°35'3 6.3
2018-Feb-16 00:30N 54°11' E 009°30'3 6.5
2018-Feb-16 00:00N 54°10' E 009°25'2 4.1
2018-Feb-15 23:30N 54°09' E 009°22'2 3.2
2018-Feb-15 23:00N 54°08' E 009°20'3 6.2
2018-Feb-15 22:30N 54°05' E 009°19'3 6.1
2018-Feb-15 22:00N 54°02' E 009°18'3 6.3
2018-Feb-15 21:31N 53°59' E 009°16'3 6.6
2018-Feb-15 21:00N 53°56' E 009°13'3 6.4
2018-Feb-15 20:30N 53°54' E 009°09'0 0.5
2018-Feb-15 20:00N 53°54' E 009°09'1 2.2
2018-Feb-15 19:30N 53°53' E 009°07'0 0.6
2018-Feb-15 19:01N 53°53' E 009°07'0 0.7
2018-Feb-15 18:30N 53°53' E 009°06'4 7.5
2018-Feb-15 18:01N 53°51' E 009°00'510.4
2018-Feb-15 17:30N 53°50' E 008°52'5 9.2
2018-Feb-15 17:00N 53°52' E 008°44'4 8.8
2018-Feb-15 16:30N 53°55' E 008°40'710.3
2018-Feb-15 15:51N 53°58' E 008°30'14613.2
2018-Feb-15 04:46N 53°14' E 004°35'414.5
2018-Feb-15 04:30N 53°11' E 004°32'714.4
2018-Feb-15 04:00N 53°04' E 004°27'814.7
2018-Feb-15 03:28N 52°58' E 004°20'714.6
2018-Feb-15 03:00N 52°51' E 004°15'1014.1
2018-Feb-15 02:16N 52°43' E 004°04'413.8
2018-Feb-15 02:00N 52°41' E 004°00'714.0
2018-Feb-15 01:29N 52°35' E 003°52'1113.8
2018-Feb-15 00:39N 52°28' E 003°39'5712.5
2018-Feb-14 20:08N 51°46' E 002°36'211.2
2018-Feb-14 19:59N 51°45' E 002°35'611.8
2018-Feb-14 19:30N 51°40' E 002°29'712.1
2018-Feb-14 18:55N 51°34' E 002°22'512.2
2018-Feb-14 18:30N 51°30' E 002°17'712.3
2018-Feb-14 17:59N 51°25' E 002°13'511.4
2018-Feb-14 17:30N 51°20' E 002°08'713.1
2018-Feb-14 17:00N 51°14' E 002°03'713.1
2018-Feb-14 16:30N 51°10' E 001°55'713.2
2018-Feb-14 16:00N 51°07' E 001°46'713.8
2018-Feb-14 15:30N 51°03' E 001°38'714.3
2018-Feb-14 15:00N 50°57' E 001°30'714.3
2018-Feb-14 14:30N 50°51' E 001°24'714.4
2018-Feb-14 14:00N 50°44' E 001°21'4913.0
2018-Feb-14 10:13N 50°22' E 000°12'314.0
2018-Feb-14 10:00N 50°21' E 000°08'714.2
2018-Feb-14 09:29N 50°19' W 000°03'714.6
2018-Feb-14 09:00N 50°17' W 000°14'915.1
2018-Feb-14 08:24N 50°15' W 000°28'1015.3
2018-Feb-14 07:45N 50°12' W 000°43'515.9
2018-Feb-14 07:27N 50°11' W 000°50'715.9
2018-Feb-14 06:59N 50°09' W 001°01'816.0
2018-Feb-14 06:30N 50°07' W 001°12'815.7
2018-Feb-14 06:00N 50°04' W 001°24'815.3
2018-Feb-14 05:30N 50°03' W 001°36'714.7
2018-Feb-14 05:00N 50°01' W 001°47'714.2
2018-Feb-14 04:31N 49°59' W 001°57'713.6
2018-Feb-14 03:58N 49°57' W 002°08'11412.0
2018-Feb-13 18:26N 49°05' W 004°45'612.3
2018-Feb-13 17:56N 49°02' W 004°53'812.1
2018-Feb-13 17:15N 48°58' W 005°04'412.3
2018-Feb-13 16:57N 48°56' W 005°08'612.5
2018-Feb-13 16:29N 48°53' W 005°16'612.7
2018-Feb-13 16:01N 48°50' W 005°24'712.8
2018-Feb-13 15:29N 48°47' W 005°33'511.4
2018-Feb-13 15:01N 48°43' W 005°38'1211.7
2018-Feb-13 13:57N 48°32' W 005°47'57811.4
2018-Feb-11 11:08N 39°21' W 009°50'212.5
2018-Feb-11 11:00N 39°20' W 009°50'612.5
2018-Feb-11 10:30N 39°14' W 009°50'612.4
2018-Feb-11 10:00N 39°07' W 009°51'612.3
2018-Feb-11 09:30N 39°01' W 009°50'612.2
2018-Feb-11 09:00N 38°55' W 009°50'612.5
2018-Feb-11 08:30N 38°49' W 009°51'612.3
2018-Feb-11 08:00N 38°43' W 009°50'612.2
2018-Feb-11 07:30N 38°37' W 009°48'612.1
2018-Feb-11 07:00N 38°31' W 009°46'612.1
2018-Feb-11 06:30N 38°25' W 009°44'611.8
2018-Feb-11 06:00N 38°19' W 009°42'611.2
2018-Feb-11 05:26N 38°13' W 009°41'510.9
2018-Feb-11 05:00N 38°08' W 009°41'611.3
2018-Feb-11 04:30N 38°03' W 009°39'611.2
2018-Feb-11 04:00N 37°58' W 009°37'611.2
2018-Feb-11 03:30N 37°52' W 009°36'611.0
2018-Feb-11 03:00N 37°47' W 009°34'510.7
2018-Feb-11 02:30N 37°41' W 009°33'21410.7
2018-Feb-10 06:31N 35°58' W 005°38'010.7
2018-Feb-10 06:30N 35°58' W 005°38'611.1
2018-Feb-10 06:00N 35°59' W 005°31'610.4
2018-Feb-10 05:28N 36°01' W 005°24'510.4
2018-Feb-10 05:00N 36°02' W 005°19'611.3
2018-Feb-10 04:30N 36°04' W 005°12'  

Dump ship's entire track history